sensor_id;sensor_type;location;lat;lon;timestamp;P1;durP1;ratioP1;P2;durP2;ratioP2
26838;SDS011;40088;51.214;6.786;2024-03-22T00:04:27;22.15;;;16.77;;
26838;SDS011;40088;51.214;6.786;2024-03-22T00:14:28;24.92;;;18.40;;
26838;SDS011;40088;51.214;6.786;2024-03-22T00:24:28;23.23;;;17.17;;
26838;SDS011;40088;51.214;6.786;2024-03-22T00:34:28;22.90;;;17.15;;
26838;SDS011;40088;51.214;6.786;2024-03-22T00:44:28;19.48;;;15.18;;
26838;SDS011;40088;51.214;6.786;2024-03-22T00:54:29;23.95;;;17.80;;
26838;SDS011;40088;51.214;6.786;2024-03-22T01:04:29;23.95;;;16.98;;
26838;SDS011;40088;51.214;6.786;2024-03-22T01:14:29;21.80;;;15.95;;
26838;SDS011;40088;51.214;6.786;2024-03-22T01:24:29;21.45;;;16.08;;
26838;SDS011;40088;51.214;6.786;2024-03-22T01:34:30;23.77;;;17.15;;
26838;SDS011;40088;51.214;6.786;2024-03-22T01:44:31;23.20;;;16.70;;
26838;SDS011;40088;51.214;6.786;2024-03-22T01:54:32;23.98;;;16.25;;
26838;SDS011;40088;51.214;6.786;2024-03-22T02:04:33;25.05;;;17.10;;
26838;SDS011;40088;51.214;6.786;2024-03-22T02:14:33;21.08;;;15.02;;
26838;SDS011;40088;51.214;6.786;2024-03-22T02:24:33;22.02;;;15.60;;
26838;SDS011;40088;51.214;6.786;2024-03-22T02:34:33;23.50;;;17.23;;
26838;SDS011;40088;51.214;6.786;2024-03-22T02:44:34;21.83;;;15.38;;
26838;SDS011;40088;51.214;6.786;2024-03-22T02:54:34;22.95;;;15.43;;
26838;SDS011;40088;51.214;6.786;2024-03-22T03:04:34;22.02;;;14.88;;
26838;SDS011;40088;51.214;6.786;2024-03-22T03:14:35;21.05;;;14.85;;
26838;SDS011;40088;51.214;6.786;2024-03-22T03:24:35;19.77;;;14.02;;
26838;SDS011;40088;51.214;6.786;2024-03-22T03:34:35;23.35;;;14.90;;
26838;SDS011;40088;51.214;6.786;2024-03-22T03:44:35;22.40;;;15.63;;
26838;SDS011;40088;51.214;6.786;2024-03-22T03:54:36;19.90;;;12.70;;
26838;SDS011;40088;51.214;6.786;2024-03-22T04:04:36;25.15;;;15.52;;
26838;SDS011;40088;51.214;6.786;2024-03-22T04:14:36;23.17;;;14.77;;
26838;SDS011;40088;51.214;6.786;2024-03-22T04:24:37;21.38;;;15.75;;
26838;SDS011;40088;51.214;6.786;2024-03-22T04:34:37;21.05;;;15.07;;
26838;SDS011;40088;51.214;6.786;2024-03-22T04:44:38;18.20;;;13.23;;
26838;SDS011;40088;51.214;6.786;2024-03-22T04:54:38;19.45;;;13.40;;
26838;SDS011;40088;51.214;6.786;2024-03-22T05:04:39;16.80;;;13.32;;
26838;SDS011;40088;51.214;6.786;2024-03-22T05:14:39;18.30;;;14.07;;
26838;SDS011;40088;51.214;6.786;2024-03-22T05:24:39;20.80;;;14.02;;
26838;SDS011;40088;51.214;6.786;2024-03-22T05:34:39;20.05;;;13.13;;
26838;SDS011;40088;51.214;6.786;2024-03-22T05:44:40;21.90;;;14.48;;
26838;SDS011;40088;51.214;6.786;2024-03-22T05:54:40;20.35;;;14.93;;
26838;SDS011;40088;51.214;6.786;2024-03-22T06:04:40;14.40;;;11.73;;
26838;SDS011;40088;51.214;6.786;2024-03-22T06:14:41;16.42;;;13.00;;
26838;SDS011;40088;51.214;6.786;2024-03-22T06:24:44;18.88;;;15.35;;
26838;SDS011;40088;51.214;6.786;2024-03-22T06:34:44;13.57;;;11.57;;
26838;SDS011;40088;51.214;6.786;2024-03-22T06:44:45;18.40;;;14.07;;
26838;SDS011;40088;51.214;6.786;2024-03-22T06:54:45;16.45;;;12.15;;
26838;SDS011;40088;51.214;6.786;2024-03-22T07:04:46;13.75;;;10.77;;
26838;SDS011;40088;51.214;6.786;2024-03-22T07:14:46;13.82;;;11.80;;
26838;SDS011;40088;51.214;6.786;2024-03-22T07:24:47;14.82;;;11.73;;
26838;SDS011;40088;51.214;6.786;2024-03-22T07:34:47;15.77;;;12.67;;
26838;SDS011;40088;51.214;6.786;2024-03-22T07:44:47;12.23;;;10.73;;
26838;SDS011;40088;51.214;6.786;2024-03-22T07:54:48;12.48;;;10.18;;
26838;SDS011;40088;51.214;6.786;2024-03-22T08:04:48;16.02;;;12.10;;
26838;SDS011;40088;51.214;6.786;2024-03-22T08:14:48;14.70;;;12.07;;
26838;SDS011;40088;51.214;6.786;2024-03-22T08:24:49;14.18;;;11.38;;
26838;SDS011;40088;51.214;6.786;2024-03-22T08:34:49;17.55;;;13.60;;
26838;SDS011;40088;51.214;6.786;2024-03-22T08:44:49;14.88;;;11.63;;
26838;SDS011;40088;51.214;6.786;2024-03-22T08:54:50;17.70;;;13.23;;
26838;SDS011;40088;51.214;6.786;2024-03-22T09:04:51;19.40;;;14.27;;
26838;SDS011;40088;51.214;6.786;2024-03-22T09:14:51;21.90;;;14.32;;
26838;SDS011;40088;51.214;6.786;2024-03-22T09:24:53;18.85;;;14.63;;
26838;SDS011;40088;51.214;6.786;2024-03-22T09:34:53;16.35;;;13.70;;
26838;SDS011;40088;51.214;6.786;2024-03-22T09:44:53;18.73;;;15.15;;
26838;SDS011;40088;51.214;6.786;2024-03-22T09:54:53;17.13;;;11.90;;
26838;SDS011;40088;51.214;6.786;2024-03-22T10:04:56;19.17;;;15.95;;
26838;SDS011;40088;51.214;6.786;2024-03-22T10:14:56;16.50;;;12.73;;
26838;SDS011;40088;51.214;6.786;2024-03-22T10:24:57;19.05;;;13.52;;
26838;SDS011;40088;51.214;6.786;2024-03-22T10:35:01;17.67;;;13.18;;
26838;SDS011;40088;51.214;6.786;2024-03-22T10:45:06;18.50;;;14.07;;
26838;SDS011;40088;51.214;6.786;2024-03-22T10:55:13;20.10;;;15.73;;
26838;SDS011;40088;51.214;6.786;2024-03-22T11:05:20;15.30;;;12.50;;
26838;SDS011;40088;51.214;6.786;2024-03-22T11:15:20;18.50;;;13.63;;
26838;SDS011;40088;51.214;6.786;2024-03-22T11:25:22;17.02;;;11.57;;
26838;SDS011;40088;51.214;6.786;2024-03-22T11:35:22;14.02;;;11.63;;
26838;SDS011;40088;51.214;6.786;2024-03-22T11:45:23;19.95;;;14.25;;
26838;SDS011;40088;51.214;6.786;2024-03-22T11:55:26;16.93;;;12.47;;
26838;SDS011;40088;51.214;6.786;2024-03-22T12:05:29;18.80;;;14.50;;
26838;SDS011;40088;51.214;6.786;2024-03-22T12:15:29;19.65;;;14.27;;
26838;SDS011;40088;51.214;6.786;2024-03-22T12:25:30;16.38;;;11.80;;
26838;SDS011;40088;51.214;6.786;2024-03-22T12:35:30;15.02;;;12.00;;
26838;SDS011;40088;51.214;6.786;2024-03-22T12:45:32;16.95;;;13.63;;
26838;SDS011;40088;51.214;6.786;2024-03-22T12:55:32;20.05;;;13.57;;
26838;SDS011;40088;51.214;6.786;2024-03-22T13:05:33;15.63;;;12.48;;
26838;SDS011;40088;51.214;6.786;2024-03-22T13:15:33;17.92;;;13.65;;
26838;SDS011;40088;51.214;6.786;2024-03-22T13:25:35;15.82;;;12.25;;
26838;SDS011;40088;51.214;6.786;2024-03-22T13:35:36;13.65;;;10.23;;
26838;SDS011;40088;51.214;6.786;2024-03-22T13:45:41;12.00;;;8.93;;
26838;SDS011;40088;51.214;6.786;2024-03-22T13:55:42;11.82;;;9.30;;
26838;SDS011;40088;51.214;6.786;2024-03-22T14:05:43;13.73;;;10.63;;
26838;SDS011;40088;51.214;6.786;2024-03-22T14:15:43;14.50;;;12.00;;
26838;SDS011;40088;51.214;6.786;2024-03-22T14:25:44;16.63;;;12.07;;
26838;SDS011;40088;51.214;6.786;2024-03-22T14:35:46;12.23;;;10.07;;
26838;SDS011;40088;51.214;6.786;2024-03-22T14:45:48;15.70;;;11.77;;
26838;SDS011;40088;51.214;6.786;2024-03-22T14:55:53;16.02;;;12.45;;
26838;SDS011;40088;51.214;6.786;2024-03-22T15:05:58;15.88;;;12.70;;
26838;SDS011;40088;51.214;6.786;2024-03-22T15:15:59;13.15;;;11.30;;
26838;SDS011;40088;51.214;6.786;2024-03-22T15:26:00;17.23;;;13.55;;
26838;SDS011;40088;51.214;6.786;2024-03-22T15:36:00;13.23;;;10.60;;
26838;SDS011;40088;51.214;6.786;2024-03-22T15:46:01;13.43;;;11.38;;
26838;SDS011;40088;51.214;6.786;2024-03-22T15:56:01;12.85;;;10.30;;
26838;SDS011;40088;51.214;6.786;2024-03-22T16:06:01;13.00;;;11.18;;
26838;SDS011;40088;51.214;6.786;2024-03-22T16:16:02;17.30;;;14.55;;
26838;SDS011;40088;51.214;6.786;2024-03-22T16:26:02;14.63;;;13.00;;
26838;SDS011;40088;51.214;6.786;2024-03-22T16:36:03;21.05;;;15.68;;
26838;SDS011;40088;51.214;6.786;2024-03-22T16:46:04;16.52;;;12.63;;
26838;SDS011;40088;51.214;6.786;2024-03-22T16:56:04;15.20;;;12.82;;
26838;SDS011;40088;51.214;6.786;2024-03-22T17:06:04;16.75;;;13.80;;
26838;SDS011;40088;51.214;6.786;2024-03-22T17:16:05;19.48;;;14.25;;
26838;SDS011;40088;51.214;6.786;2024-03-22T17:26:06;13.98;;;10.95;;
26838;SDS011;40088;51.214;6.786;2024-03-22T17:36:07;14.25;;;12.48;;
26838;SDS011;40088;51.214;6.786;2024-03-22T17:46:07;19.13;;;13.73;;
26838;SDS011;40088;51.214;6.786;2024-03-22T17:56:07;16.52;;;13.77;;
26838;SDS011;40088;51.214;6.786;2024-03-22T18:06:08;14.85;;;12.88;;
26838;SDS011;40088;51.214;6.786;2024-03-22T18:16:08;15.27;;;12.85;;
26838;SDS011;40088;51.214;6.786;2024-03-22T18:26:08;14.70;;;12.20;;
26838;SDS011;40088;51.214;6.786;2024-03-22T18:36:09;17.60;;;15.63;;
26838;SDS011;40088;51.214;6.786;2024-03-22T18:46:09;13.95;;;12.45;;
26838;SDS011;40088;51.214;6.786;2024-03-22T18:56:09;16.50;;;13.02;;
26838;SDS011;40088;51.214;6.786;2024-03-22T19:06:11;15.95;;;13.45;;
26838;SDS011;40088;51.214;6.786;2024-03-22T19:16:11;13.80;;;12.35;;
26838;SDS011;40088;51.214;6.786;2024-03-22T19:26:11;16.35;;;13.65;;
26838;SDS011;40088;51.214;6.786;2024-03-22T19:36:12;16.88;;;14.20;;
26838;SDS011;40088;51.214;6.786;2024-03-22T19:46:12;16.63;;;14.00;;
26838;SDS011;40088;51.214;6.786;2024-03-22T19:56:12;13.18;;;11.77;;
26838;SDS011;40088;51.214;6.786;2024-03-22T20:06:12;16.13;;;13.27;;
26838;SDS011;40088;51.214;6.786;2024-03-22T20:16:13;14.30;;;11.68;;
26838;SDS011;40088;51.214;6.786;2024-03-22T20:26:13;16.10;;;12.88;;
26838;SDS011;40088;51.214;6.786;2024-03-22T20:36:13;13.85;;;11.88;;
